Time;durP1;ratioP1;P1;durP2;ratioP2;P2;SDS_P1;SDS_P2;PMS_P1;PMS_P2;Temp;Humidity;BMP_temperature;BMP_pressure;BME280_temperature;BME280_humidity;BME280_pressure;Samples;Min_cycle;Max_cycle;Signal;HPM_P1;HPM_P2
2021/01/02 00:00:51;;;;;;;1999.90;999.90;;;;;;;1.84;100.00;100946.86;1712678;82;21632;-71
2021/01/02 00:03:59;;;;;;;1999.90;999.90;;;;;;;1.85;100.00;100944.42;1716940;82;21130;-61
2021/01/02 00:06:33;;;;;;;1999.90;999.90;;;;;;;1.85;100.00;100938.97;1669427;83;21106;-63
2021/01/02 00:09:11;;;;;;;1999.90;999.90;;;;;;;1.89;100.00;100944.23;1866978;74;23223;-68
2021/01/02 00:12:05;;;;;;;1999.90;999.90;;;;;;;1.84;100.00;100949.05;1807674;75;21272;-63
2021/01/02 00:15:05;;;;;;;1999.90;999.90;;;;;;;1.85;100.00;100940.33;1813745;77;21296;-70
2021/01/02 00:18:08;;;;;;;1999.90;999.90;;;;;;;1.86;100.00;100945.55;1800221;77;21123;-70
2021/01/02 00:21:22;;;;;;;1999.90;999.90;;;;;;;1.85;100.00;100938.97;1814278;77;21605;-70
2021/01/02 00:24:14;;;;;;;1999.90;999.90;;;;;;;1.85;100.00;100943.05;1806757;77;20996;-63
2021/01/02 00:26:46;;;;;;;1999.90;999.90;;;;;;;1.84;100.00;100945.49;1812445;77;20964;-64
2021/01/02 00:29:19;;;;;;;1999.90;999.90;;;;;;;1.85;100.00;100947.16;1811950;77;22289;-64
2021/01/02 00:32:19;;;;;;;1999.90;999.90;;;;;;;1.84;100.00;100938.67;1813473;77;21315;-68
2021/01/02 00:35:08;;;;;;;1999.90;999.90;;;;;;;1.83;100.00;100949.30;1814591;78;21020;-64
2021/01/02 00:37:40;;;;;;;1999.90;999.90;;;;;;;1.82;100.00;100945.73;1804114;78;20965;-65
2021/01/02 00:40:19;;;;;;;1999.90;999.90;;;;;;;1.79;100.00;100941.30;1816969;77;21111;-68
2021/01/02 00:42:49;;;;;;;1999.90;999.90;;;;;;;1.81;100.00;100941.88;1805099;77;22339;-68
2021/01/02 00:45:20;;;;;;;1999.90;999.90;;;;;;;1.82;100.00;100944.91;1813009;77;20929;-64
2021/01/02 00:47:50;;;;;;;1999.90;999.90;;;;;;;1.82;100.00;100944.91;1802419;77;21110;-68
2021/01/02 00:50:20;;;;;;;1999.90;999.90;;;;;;;1.83;100.00;100952.85;1812295;77;20980;-65
2021/01/02 00:53:18;;;;;;;1999.90;999.90;;;;;;;1.83;100.00;100957.48;1780512;78;21087;-63
2021/01/02 00:56:04;;;;;;;1999.90;999.90;;;;;;;1.79;100.00;100948.12;1775837;78;22282;-64
2021/01/02 00:58:50;;;;;;;1999.90;999.90;;;;;;;1.75;100.00;100957.86;1765028;78;21072;-68
2021/01/02 01:01:38;;;;;;;1999.90;999.90;;;;;;;1.74;100.00;100959.75;1780306;80;21111;-65
2021/01/02 01:04:33;;;;;;;1999.90;999.90;;;;;;;1.73;100.00;100952.64;1782291;79;21531;-68
2021/01/02 01:07:01;;;;;;;1999.90;999.90;;;;;;;1.73;100.00;100958.09;1731599;81;20986;-64
2021/01/02 01:09:29;;;;;;;1999.90;999.90;;;;;;;1.71;100.00;100952.58;1757097;79;21432;-64
2021/01/02 01:11:56;;;;;;;1999.90;999.90;;;;;;;1.71;100.00;100955.31;1720863;81;21612;-64
2021/01/02 01:14:27;;;;;;;1999.90;999.90;;;;;;;1.71;100.00;100951.22;1755066;79;21139;-68
2021/01/02 01:16:57;;;;;;;1999.90;999.90;;;;;;;1.75;100.00;100950.50;1749906;81;21527;-64
2021/01/02 01:19:28;;;;;;;1999.90;999.90;;;;;;;1.77;100.00;100952.45;1752022;81;20951;-67
2021/01/02 01:21:58;;;;;;;1999.90;999.90;;;;;;;1.80;100.00;100952.50;1762702;81;22678;-67
2021/01/02 01:24:59;;;;;;;1999.90;999.90;;;;;;;1.79;100.00;100952.21;1704453;79;21173;-67
2021/01/02 01:27:41;;;;;;;1999.90;999.90;;;;;;;1.79;100.00;100961.23;1743132;79;21136;-60
2021/01/02 01:30:12;;;;;;;1999.90;999.90;;;;;;;1.78;100.00;100967.75;1758677;79;21121;-60
2021/01/02 01:32:43;;;;;;;1999.90;999.90;;;;;;;1.76;100.00;100967.70;1753292;81;21573;-66
2021/01/02 01:35:13;;;;;;;1999.90;999.90;;;;;;;1.75;100.00;100966.04;1757141;79;21677;-60
2021/01/02 01:37:41;;;;;;;1999.90;999.90;;;;;;;1.76;100.00;100974.52;1745892;81;21178;-62
2021/01/02 01:40:10;;;;;;;1999.90;999.90;;;;;;;1.75;100.00;100971.50;1763656;79;21010;-65
2021/01/02 01:42:45;;;;;;;1999.90;999.90;;;;;;;1.74;100.00;100969.84;1725220;80;20992;-67
2021/01/02 01:45:40;;;;;;;;;;;;;;;1.73;100.00;100966.28;1775323;78;21656;-67
2021/01/02 01:48:12;;;;;;;1999.90;999.90;;;;;;;1.71;100.00;100964.33;1762687;78;21449;-63
2021/01/02 01:51:23;;;;;;;1999.90;999.90;;;;;;;1.70;100.00;100969.49;1762977;79;21086;-67
2021/01/02 01:54:30;;;;;;;1999.90;999.90;;;;;;;1.71;100.00;100975.78;1750229;79;21182;-67
2021/01/02 01:57:06;;;;;;;1999.90;999.90;;;;;;;1.68;100.00;100972.16;1834992;76;22312;-66
2021/01/02 01:59:57;;;;;;;1999.90;999.90;;;;;;;1.59;100.00;100971.17;1805760;79;21074;-62
2021/01/02 02:02:48;;;;;;;1999.90;999.90;;;;;;;1.57;100.00;100967.02;1777440;80;21377;-63
2021/01/02 02:05:23;;;;;;;1999.90;999.90;;;;;;;1.57;100.00;100967.02;1778807;80;21237;-65
2021/01/02 02:08:03;;;;;;;1999.90;999.90;;;;;;;1.59;100.00;100975.27;1780316;79;20980;-71
2021/01/02 02:10:38;;;;;;;1999.90;999.90;;;;;;;1.62;100.00;100975.31;1780061;79;21554;-71
2021/01/02 02:13:21;;;;;;;1999.90;999.90;;;;;;;1.65;100.00;100974.84;1780406;80;21004;-66
2021/01/02 02:15:55;;;;;;;1999.90;999.90;;;;;;;1.68;100.00;100980.35;1742906;80;22286;-66
2021/01/02 02:18:28;;;;;;;1999.90;999.90;;;;;;;1.71;100.00;100981.23;1773628;80;21107;-70
2021/01/02 02:20:57;;;;;;;1999.90;999.90;;;;;;;1.71;100.00;100981.23;1775254;80;21649;-70
2021/01/02 02:23:37;;;;;;;1999.90;999.90;;;;;;;1.69;100.00;100983.38;1778710;80;21457;-61
2021/01/02 02:26:25;;;;;;;1999.90;999.90;;;;;;;1.65;100.00;100975.38;1780937;80;21486;-67
2021/01/02 02:29:01;;;;;;;1999.90;999.90;;;;;;;1.66;100.00;100978.40;1779805;80;21386;-70
2021/01/02 02:31:29;;;;;;;1999.90;999.90;;;;;;;1.68;100.00;100981.18;1784156;80;20977;-70
2021/01/02 02:34:00;;;;;;;1999.90;999.90;;;;;;;1.70;100.00;100985.03;1782788;80;20969;-70
2021/01/02 02:36:31;;;;;;;1999.90;999.90;;;;;;;1.71;100.00;100989.42;1782226;80;21123;-70
2021/01/02 02:39:03;;;;;;;1999.90;999.90;;;;;;;1.72;100.00;100993.27;1779619;80;21158;-60
2021/01/02 02:41:34;;;;;;;1999.90;999.90;;;;;;;1.70;100.00;100994.58;1777420;79;22212;-70
2021/01/02 02:44:03;;;;;;;1999.90;999.90;;;;;;;1.68;100.00;101002.18;1780298;80;20981;-60
2021/01/02 02:49:13;;;;;;;1999.90;999.90;;;;;;;1.69;100.00;101001.11;1872397;75;22438;-58
2021/01/02 02:52:18;;;;;;;1999.90;999.90;;;;;;;1.66;100.00;101004.31;1853718;77;20968;-67
2021/01/02 02:54:46;;;;;;;1999.90;999.90;;;;;;;1.65;100.00;101005.38;1841692;77;21344;-61
2021/01/02 02:57:14;;;;;;;1999.90;999.90;;;;;;;1.66;100.00;101000.22;1788905;80;21106;-69
2021/01/02 02:59:41;;;;;;;1999.90;999.90;;;;;;;1.68;100.00;101009.00;1803363;78;21586;-69
2021/01/02 03:02:09;;;;;;;1999.90;999.90;;;;;;;1.66;100.00;101013.33;1813790;78;20957;-70
2021/01/02 03:04:37;;;;;;;1999.90;999.90;;;;;;;1.70;100.00;101019.14;1783986;79;20954;-61
2021/01/02 03:07:05;;;;;;;1999.90;999.90;;;;;;;1.83;100.00;101023.81;1805522;78;22270;-60
2021/01/02 03:09:33;;;;;;;1999.90;999.90;;;;;;;2.04;100.00;101026.98;1788667;79;21595;-60
2021/01/02 03:12:01;;;;;;;1999.90;999.90;;;;;;;2.26;100.00;101032.09;1807857;78;20941;-60
2021/01/02 03:14:29;;;;;;;1999.90;999.90;;;;;;;2.46;100.00;101038.49;1788475;79;21664;-60
2021/01/02 03:17:00;;;;;;;1999.90;999.90;;;;;;;2.68;100.00;101034.00;1805536;78;21095;-60
2021/01/02 03:19:29;;;;;;;1999.90;999.90;;;;;;;2.96;100.00;101033.68;1787299;79;21350;-69
2021/01/02 03:21:57;;;;;;;1999.90;999.90;;;;;;;3.11;100.00;101040.78;1797848;78;21597;-60
2021/01/02 03:24:26;;;;;;;1999.90;999.90;;;;;;;3.26;100.00;101040.20;1787474;79;21571;-61
2021/01/02 03:26:54;;;;;;;1999.90;999.90;;;;;;;3.42;100.00;101036.11;1783116;79;21143;-69
2021/01/02 03:29:22;;;;;;;1999.90;999.90;;;;;;;3.51;100.00;101039.25;1810234;78;21127;-61
2021/01/02 03:31:49;;;;;;;1999.90;999.90;;;;;;;3.58;100.00;101054.13;1792231;79;21426;-66
2021/01/02 03:34:17;;;;;;;1999.90;999.90;;;;;;;3.62;100.00;101048.45;1788495;78;21014;-61
2021/01/02 03:36:45;;;;;;;1999.90;999.90;;;;;;;3.66;100.00;101056.44;1778163;80;21538;-68
2021/01/02 03:39:12;;;;;;;1999.90;999.90;;;;;;;3.70;100.00;101051.59;1787759;79;20994;-69
2021/01/02 03:41:40;;;;;;;1999.90;999.90;;;;;;;3.74;100.00;101045.90;1788769;80;20937;-61
2021/01/02 03:44:08;;;;;;;1999.90;999.90;;;;;;;3.79;100.00;101057.46;1779384;78;21420;-61
2021/01/02 03:46:35;;;;;;;1999.90;999.90;;;;;;;3.81;100.00;101056.67;1785949;79;21566;-61
2021/01/02 03:49:03;;;;;;;1999.90;999.90;;;;;;;3.84;100.00;101061.64;1810372;78;20988;-64
2021/01/02 03:51:31;;;;;;;1999.90;999.90;;;;;;;3.88;100.00;101064.99;1794760;79;21534;-65
2021/01/02 03:53:59;;;;;;;1999.90;999.90;;;;;;;3.94;100.00;101071.37;1791234;78;21532;-68
2021/01/02 03:56:27;;;;;;;1999.90;999.90;;;;;;;3.95;100.00;101068.92;1815199;78;22173;-61
2021/01/02 03:58:54;;;;;;;1999.90;999.90;;;;;;;3.97;100.00;101074.98;1791144;79;20950;-68
2021/01/02 04:01:27;;;;;;;1999.90;999.90;;;;;;;3.97;100.00;101077.72;1798292;78;20961;-61
2021/01/02 04:03:55;;;;;;;1999.90;999.90;;;;;;;3.98;100.00;101082.11;1795533;79;21119;-61
2021/01/02 04:06:26;;;;;;;1999.90;999.90;;;;;;;4.01;100.00;101090.36;1797000;78;20959;-61
2021/01/02 04:08:53;;;;;;;1999.90;999.90;;;;;;;4.01;100.00;101101.31;1788188;79;21559;-68
2021/01/02 04:11:21;;;;;;;1999.90;999.90;;;;;;;4.00;100.00;101096.38;1795696;79;21403;-68
2021/01/02 04:13:49;;;;;;;1999.90;999.90;;;;;;;4.00;100.00;101098.29;1800875;79;21095;-66
2021/01/02 04:16:18;;;;;;;1999.90;999.90;;;;;;;3.98;100.00;101108.13;1793513;79;20952;-60
2021/01/02 04:18:46;;;;;;;1999.90;999.90;;;;;;;3.98;100.00;101105.39;1798690;79;20969;-67
2021/01/02 04:21:13;;;;;;;1999.90;999.90;;;;;;;3.99;100.00;101113.06;1797842;79;22307;-68
2021/01/02 04:23:41;;;;;;;1999.90;999.90;;;;;;;3.99;100.00;101113.89;1799226;79;21150;-66
2021/01/02 04:26:09;;;;;;;1999.90;999.90;;;;;;;3.97;100.00;101120.70;1796037;79;20976;-67
2021/01/02 04:28:37;;;;;;;1999.90;999.90;;;;;;;3.94;100.00;101120.66;1797653;78;20996;-60
2021/01/02 04:31:05;;;;;;;1999.90;999.90;;;;;;;3.94;100.00;101123.95;1794676;78;20988;-60
2021/01/02 04:33:32;;;;;;;1999.90;999.90;;;;;;;3.91;100.00;101131.30;1785260;78;22338;-66
2021/01/02 04:36:00;;;;;;;1999.90;999.90;;;;;;;3.91;100.00;101128.02;1812438;78;20969;-68
2021/01/02 04:38:29;;;;;;;1999.90;999.90;;;;;;;3.93;100.00;101135.98;1806228;78;21111;-66
2021/01/02 04:40:58;;;;;;;1999.90;999.90;;;;;;;3.94;100.00;101131.63;1791804;80;21083;-59
2021/01/02 04:43:26;;;;;;;1999.90;999.90;;;;;;;3.95;100.00;101139.30;1796635;79;21087;-60
2021/01/02 04:45:54;;;;;;;1999.90;999.90;;;;;;;3.96;100.00;101134.94;1810888;78;22333;-68
2021/01/02 04:48:22;;;;;;;1999.90;999.90;;;;;;;3.97;100.00;101133.03;1744295;80;21012;-72
2021/01/02 04:50:49;;;;;;;1999.90;999.90;;;;;;;3.96;100.00;101134.94;1777693;79;21582;-67
2021/01/02 04:53:17;;;;;;;1999.90;999.90;;;;;;;3.95;100.00;101140.12;1791376;79;21593;-67
2021/01/02 04:55:45;;;;;;;1999.90;999.90;;;;;;;3.92;100.00;101143.37;1769705;79;21127;-70
2021/01/02 04:58:14;;;;;;;1999.90;999.90;;;;;;;3.93;100.00;101146.94;1780024;79;21360;-64
2021/01/02 05:00:42;;;;;;;1999.90;999.90;;;;;;;3.95;100.00;101143.41;1780217;80;20953;-64
2021/01/02 05:03:10;;;;;;;1999.90;999.90;;;;;;;3.98;100.00;101148.38;1782522;79;20999;-62
2021/01/02 05:05:38;;;;;;;1999.90;999.90;;;;;;;3.99;100.00;101152.78;1771771;79;20953;-70
2021/01/02 05:08:06;;;;;;;1999.90;999.90;;;;;;;3.97;100.00;101155.77;1791994;78;20952;-62
2021/01/02 05:10:34;;;;;;;1999.90;999.90;;;;;;;3.94;100.00;101163.66;1777756;80;21379;-65
2021/01/02 05:13:10;;;;;;;1999.90;999.90;;;;;;;3.90;100.00;101171.54;1778642;79;20979;-68
2021/01/02 05:15:37;;;;;;;1999.90;999.90;;;;;;;3.89;100.00;101169.34;1780356;79;20949;-65
2021/01/02 05:18:05;;;;;;;1999.90;999.90;;;;;;;3.91;100.00;101165.52;1780934;79;21542;-65
2021/01/02 05:20:33;;;;;;;1999.90;999.90;;;;;;;3.92;100.00;101165.81;1790031;79;21530;-66
2021/01/02 05:23:10;;;;;;;1999.90;999.90;;;;;;;3.87;100.00;101176.97;1770929;79;21373;-66
2021/01/02 05:25:38;;;;;;;1999.90;999.90;;;;;;;3.78;100.00;101178.47;1759973;80;21076;-64
2021/01/02 05:28:17;;;;;;;1999.90;999.90;;;;;;;3.71;100.00;101182.45;1774252;80;21127;-63
2021/01/02 05:30:45;;;;;;;1999.90;999.90;;;;;;;3.66;100.00;101185.92;1765871;79;21138;-63
2021/01/02 05:33:13;;;;;;;1999.90;999.90;;;;;;;3.61;100.00;101189.11;1779889;79;20972;-62
2021/01/02 05:35:46;;;;;;;1999.90;999.90;;;;;;;3.61;100.00;101190.48;1782154;79;21382;-65
2021/01/02 05:38:21;;;;;;;1999.90;999.90;;;;;;;3.63;100.00;101188.33;1787413;79;21107;-62
2021/01/02 05:40:51;;;;;;;1999.90;999.90;;;;;;;3.63;100.00;101188.33;1773602;79;21716;-66
2021/01/02 05:43:21;;;;;;;1999.90;999.90;;;;;;;3.65;100.00;101191.11;1786200;79;21539;-66
2021/01/02 05:45:50;;;;;;;1999.90;999.90;;;;;;;3.68;100.00;101194.72;1781571;79;21024;-65
2021/01/02 05:48:24;;;;;;;1999.90;999.90;;;;;;;3.70;100.00;101197.21;1787265;79;22260;-66
2021/01/02 05:51:00;;;;;;;1999.90;999.90;;;;;;;3.72;100.00;101201.90;1797646;78;20961;-65
2021/01/02 05:53:35;;;;;;;1999.90;999.90;;;;;;;3.76;100.00;101205.80;1793262;78;20984;-67
2021/01/02 05:56:12;;;;;;;1999.90;999.90;;;;;;;3.77;100.00;101199.25;1776520;79;21511;-66
2021/01/02 05:58:47;;;;;;;1999.90;999.90;;;;;;;3.78;100.00;101211.86;1763829;80;20941;-65
2021/01/02 06:01:15;;;;;;;;;;;;;;;3.76;100.00;101220.86;1793462;79;21148;-65
2021/01/02 06:03:47;;;;;;;1999.90;999.90;;;;;;;3.76;100.00;101216.76;1790229;79;20265;-64
2021/01/02 06:06:17;;;;;;;1999.90;999.90;;;;;;;3.73;100.00;101212.61;1792223;78;20992;-65
2021/01/02 06:08:48;;;;;;;1999.90;999.90;;;;;;;3.78;100.00;101226.92;1793352;79;21083;-66
2021/01/02 06:11:23;;;;;;;1999.90;999.90;;;;;;;3.80;100.00;101230.24;1784480;79;21426;-66
2021/01/02 06:13:52;;;;;;;1999.90;999.90;;;;;;;3.80;100.00;101230.24;1790982;79;22308;-66
2021/01/02 06:16:21;;;;;;;1999.90;999.90;;;;;;;3.74;100.00;101229.33;1788455;79;20973;-66
2021/01/02 06:18:49;;;;;;;1999.90;999.90;;;;;;;3.66;100.00;101231.09;1789537;79;21135;-67
2021/01/02 06:21:18;;;;;;;1999.90;999.90;;;;;;;3.62;100.00;101236.77;1788257;78;21067;-66
2021/01/02 06:23:47;;;;;;;1999.90;999.90;;;;;;;3.55;100.00;101247.87;1790342;79;21123;-65
2021/01/02 06:26:16;;;;;;;1999.90;999.90;;;;;;;3.47;100.00;101255.64;1792741;79;21326;-65
2021/01/02 06:28:44;;;;;;;1999.90;999.90;;;;;;;3.38;100.00;101266.14;1788581;79;21111;-67
2021/01/02 06:31:15;;;;;;;1999.90;999.90;;;;;;;3.29;100.00;101262.67;1790388;79;20984;-67
2021/01/02 06:33:50;;;;;;;1999.90;999.90;;;;;;;3.23;100.00;101265.84;1782810;80;21148;-66
2021/01/02 06:36:35;;;;;;;1999.90;999.90;;;;;;;3.19;100.00;101271.50;1780719;80;21102;-67
2021/01/02 06:39:27;;;;;;;1999.90;999.90;;;;;;;3.22;100.00;101277.86;1781633;80;21341;-66
2021/01/02 06:41:56;;;;;;;1999.90;999.90;;;;;;;3.21;100.00;101283.03;1770139;80;21208;-65
2021/01/02 06:44:44;;;;;;;1999.90;999.90;;;;;;;3.26;100.00;101285.88;1769130;80;20938;-65
2021/01/02 06:47:21;;;;;;;1999.90;999.90;;;;;;;3.35;100.00;101291.80;1769668;80;21099;-65
2021/01/02 06:49:51;;;;;;;1999.90;999.90;;;;;;;3.46;100.00;101288.19;1783239;79;21687;-65
2021/01/02 06:52:32;;;;;;;1999.90;999.90;;;;;;;3.59;100.00;101298.84;1771094;79;21552;-66
2021/01/02 06:55:25;;;;;;;1999.90;999.90;;;;;;;3.66;100.00;101301.44;1772966;79;21112;-65
2021/01/02 06:57:57;;;;;;;1999.90;999.90;;;;;;;3.72;100.00;101303.20;1764202;79;21168;-65
2021/01/02 07:00:27;;;;;;;1999.90;999.90;;;;;;;3.77;100.00;101301.92;1765508;79;21090;-65
2021/01/02 07:02:55;;;;;;;1999.90;999.90;;;;;;;3.83;100.00;101311.36;1772137;79;21110;-67
2021/01/02 07:05:48;;;;;;;1999.90;999.90;;;;;;;3.88;100.00;101314.19;1772091;79;21208;-67
2021/01/02 07:08:43;;;;;;;1999.90;999.90;;;;;;;3.93;100.00;101313.45;1771765;80;20967;-65
2021/01/02 07:11:34;;;;;;;1999.90;999.90;;;;;;;4.00;100.00;101326.98;1772075;79;21115;-68
2021/01/02 07:14:14;;;;;;;1999.90;999.90;;;;;;;4.02;100.00;101324.30;1767913;79;21117;-65
2021/01/02 07:16:58;;;;;;;1999.90;999.90;;;;;;;4.02;100.00;101326.20;1777271;79;21095;-68
2021/01/02 07:19:40;;;;;;;1999.90;999.90;;;;;;;4.04;100.00;101331.73;1761197;80;21341;-65
2021/01/02 07:22:20;;;;;;;1999.90;999.90;;;;;;;4.05;100.00;101340.23;1777498;79;20963;-64
2021/01/02 07:25:01;;;;;;;1999.90;999.90;;;;;;;4.07;100.00;101344.93;1772797;79;21203;-65
2021/01/02 07:27:39;;;;;;;1999.90;999.90;;;;;;;4.10;100.00;101348.55;1776040;79;21509;-65
2021/01/02 07:30:11;;;;;;;1999.90;999.90;;;;;;;4.14;100.00;101350.25;1771300;79;21113;-65
2021/01/02 07:32:41;;;;;;;1999.90;999.90;;;;;;;4.17;100.00;101357.44;1770213;79;21359;-64
2021/01/02 07:35:11;;;;;;;1999.90;999.90;;;;;;;4.21;100.00;101361.89;1790814;78;21596;-65
2021/01/02 07:37:41;;;;;;;1999.90;999.90;;;;;;;4.23;100.00;101358.91;1793324;78;21005;-65
2021/01/02 07:40:14;;;;;;;1999.90;999.90;;;;;;;4.24;100.00;101366.88;1790886;78;21115;-65
2021/01/02 07:42:49;;;;;;;1999.90;999.90;;;;;;;4.24;100.00;101372.89;1791291;80;21066;-64
2021/01/02 07:45:22;;;;;;;1999.90;999.90;;;;;;;4.25;100.00;101377.30;1789573;78;21381;-68
2021/01/02 07:47:54;;;;;;;1999.90;999.90;;;;;;;4.26;100.00;101380.33;1755557;80;21109;-64
2021/01/02 07:50:24;;;;;;;1999.90;999.90;;;;;;;4.26;100.00;101392.66;1777570;80;21079;-64
2021/01/02 07:52:57;;;;;;;1999.90;999.90;;;;;;;4.24;100.00;101388.80;1807184;78;21587;-64
2021/01/02 07:55:33;;;;;;;1999.90;999.90;;;;;;;4.23;100.00;101384.39;1807060;78;26477;-68
2021/01/02 07:58:00;;;;;;;;;;;;;;;4.23;100.00;101399.47;1786103;79;21397;-68
2021/01/02 08:00:28;;;;;;;1999.90;999.90;;;;;;;4.23;100.00;101402.20;1779250;79;20253;-64
2021/01/02 08:03:02;;;;;;;1999.90;999.90;;;;;;;4.20;100.00;101406.80;1783832;79;21574;-65
2021/01/02 08:05:30;;;;;;;1999.90;999.90;;;;;;;4.20;100.00;101406.80;1780169;79;21107;-69
2021/01/02 08:08:00;;;;;;;1999.90;999.90;;;;;;;4.19;100.00;101416.94;1783012;79;21249;-64
2021/01/02 08:10:29;;;;;;;1999.90;999.90;;;;;;;4.19;100.00;101418.30;1783918;79;21345;-64
2021/01/02 08:13:00;;;;;;;1999.90;999.90;;;;;;;4.17;100.00;101421.00;1777849;79;21560;-69
2021/01/02 08:15:36;;;;;;;1999.90;999.90;;;;;;;4.18;100.00;101424.03;1783059;79;21638;-69
2021/01/02 08:18:10;;;;;;;1999.90;999.90;;;;;;;4.20;100.00;101427.36;1783160;79;21111;-68
2021/01/02 08:20:38;;;;;;;1999.90;999.90;;;;;;;4.21;100.00;101426.28;1775497;79;21107;-65
2021/01/02 08:23:09;;;;;;;1999.90;999.90;;;;;;;4.24;100.00;101440.02;1746248;79;22286;-68
2021/01/02 08:25:37;;;;;;;1999.90;999.90;;;;;;;4.25;100.00;101436.20;1781877;79;21296;-65
2021/01/02 08:28:05;;;;;;;1999.90;999.90;;;;;;;4.25;100.00;101438.41;1777809;79;21106;-65
2021/01/02 08:30:33;;;;;;;1999.90;999.90;;;;;;;4.27;100.00;101439.00;1778409;79;21794;-63
2021/01/02 08:33:01;;;;;;;1999.90;999.90;;;;;;;4.30;100.00;101438.50;1778681;79;21107;-67
2021/01/02 08:35:38;;;;;;;1999.90;999.90;;;;;;;4.33;100.00;101446.77;1780502;79;21374;-63
2021/01/02 08:38:12;;;;;;;1999.90;999.90;;;;;;;4.36;100.00;101444.91;1782626;79;21182;-62
2021/01/02 08:40:44;;;;;;;;;;;;;;;4.39;100.00;101452.11;1782207;79;20984;-66
2021/01/02 08:43:22;;;;;;;1999.90;999.90;;;;;;;4.41;100.00;101451.86;1784147;79;20236;-62
2021/01/02 08:45:52;;;;;;;1999.90;999.90;;;;;;;4.40;100.00;101455.14;1780190;79;21099;-63
2021/01/02 08:48:19;;;;;;;1999.90;999.90;;;;;;;4.40;100.00;101463.90;1779399;79;22272;-62
2021/01/02 08:50:47;;;;;;;1999.90;999.90;;;;;;;4.39;100.00;101465.81;1770607;79;21125;-63
2021/01/02 08:53:28;;;;;;;1999.90;999.90;;;;;;;4.41;100.00;101474.63;1760826;80;21567;-69
2021/01/02 08:55:56;;;;;;;1999.90;999.90;;;;;;;4.41;100.00;101471.88;1768342;79;21123;-65
2021/01/02 08:58:33;;;;;;;1999.90;999.90;;;;;;;4.41;100.00;101475.99;1768310;80;21140;-68
2021/01/02 09:01:01;;;;;;;1999.90;999.90;;;;;;;4.41;100.00;101480.09;1771043;80;22030;-64
2021/01/02 09:03:29;;;;;;;1999.90;999.90;;;;;;;4.39;100.00;101484.16;1761965;80;21155;-69
2021/01/02 09:05:56;;;;;;;1999.90;999.90;;;;;;;4.36;100.00;101489.59;1759480;80;21116;-60
2021/01/02 09:08:24;;;;;;;1999.90;999.90;;;;;;;4.35;100.00;101482.45;1779292;80;21163;-65
2021/01/02 09:10:58;;;;;;;1999.90;999.90;;;;;;;4.35;100.00;101490.67;1773169;80;21108;-65
2021/01/02 09:13:27;;;;;;;1999.90;999.90;;;;;;;4.35;100.00;101496.16;1782672;79;22287;-65
2021/01/02 09:16:05;;;;;;;1999.90;999.90;;;;;;;4.32;100.00;101496.64;1780248;80;21143;-63
2021/01/02 09:18:36;;;;;;;1999.90;999.90;;;;;;;4.32;100.00;101502.66;1783731;79;21642;-70
2021/01/02 09:21:16;;;;;;;1999.90;999.90;;;;;;;4.30;100.00;101502.08;1780364;78;21535;-76
2021/01/02 09:23:45;;;;;;;1999.90;999.90;;;;;;;4.30;100.00;101500.70;1759590;80;21068;-71
2021/01/02 09:26:26;;;;;;;1999.90;999.90;;;;;;;4.27;100.00;101502.02;1775546;80;21268;-64
2021/01/02 09:28:55;;;;;;;1999.90;999.90;;;;;;;4.27;100.00;101510.24;1768531;80;21169;-73
2021/01/02 09:31:23;;;;;;;1999.90;999.90;;;;;;;4.25;100.00;101511.56;1772933;80;21131;-62
2021/01/02 09:33:51;;;;;;;1999.90;999.90;;;;;;;4.23;100.00;101510.44;1769388;80;21117;-62
2021/01/02 09:36:21;;;;;;;1999.90;999.90;;;;;;;4.23;100.00;101516.45;1766996;80;21100;-72
2021/01/02 09:38:49;;;;;;;1999.90;999.90;;;;;;;4.21;100.00;101518.06;1755894;80;21373;-70
2021/01/02 09:41:20;;;;;;;1999.90;999.90;;;;;;;4.19;100.00;101518.84;1767188;80;21126;-69
2021/01/02 09:43:48;;;;;;;1999.90;999.90;;;;;;;4.18;100.00;101522.13;1750041;79;21126;-65
2021/01/02 09:46:17;;;;;;;1999.90;999.90;;;;;;;4.19;100.00;101534.75;1774665;80;21684;-67
2021/01/02 09:48:49;;;;;;;1999.90;999.90;;;;;;;4.19;100.00;101539.40;1769448;78;21088;-64
2021/01/02 09:51:17;;;;;;;1999.90;999.90;;;;;;;4.19;100.00;101540.77;1766884;79;21209;-65
2021/01/02 09:53:45;;;;;;;1999.90;999.90;;;;;;;4.16;100.00;101542.08;1768218;79;21118;-68
2021/01/02 09:56:13;;;;;;;1999.90;999.90;;;;;;;4.15;100.00;101542.33;1770830;79;21086;-65
2021/01/02 09:58:44;;;;;;;1999.90;999.90;;;;;;;4.14;100.00;101550.25;1770363;79;21448;-68
2021/01/02 10:01:14;;;;;;;1999.90;999.90;;;;;;;4.14;100.00;101542.86;1766805;80;21082;-65
2021/01/02 10:03:42;;;;;;;1999.90;999.90;;;;;;;4.11;100.00;101539.78;1763005;81;21374;-68
2021/01/02 10:06:10;;;;;;;1999.90;999.90;;;;;;;4.08;100.00;101545.20;1767921;79;21118;-68
2021/01/02 10:08:38;;;;;;;1999.90;999.90;;;;;;;4.08;100.00;101545.73;1769301;79;21162;-68
2021/01/02 10:11:06;;;;;;;1999.90;999.90;;;;;;;4.05;100.00;101559.92;1741350;81;21105;-63
2021/01/02 10:13:33;;;;;;;1999.90;999.90;;;;;;;4.06;100.00;101562.41;1768645;81;21094;-63
2021/01/02 10:16:01;;;;;;;1999.90;999.90;;;;;;;4.08;100.00;101556.70;1764940;79;21380;-63
2021/01/02 10:18:31;;;;;;;1999.90;999.90;;;;;;;4.09;100.00;101559.19;1766688;79;21514;-68
2021/01/02 10:20:59;;;;;;;1999.90;999.90;;;;;;;4.07;100.00;101570.93;1767632;81;21090;-64
2021/01/02 10:23:27;;;;;;;1999.90;999.90;;;;;;;4.07;100.00;101575.58;1761447;79;21130;-68
2021/01/02 10:25:55;;;;;;;1999.90;999.90;;;;;;;4.08;100.00;101581.35;1762624;80;21069;-70
2021/01/02 10:28:23;;;;;;;1999.90;999.90;;;;;;;4.08;100.00;101580.81;1761746;81;21399;-62
2021/01/02 10:30:50;;;;;;;1999.90;999.90;;;;;;;4.08;100.00;101584.09;1761116;79;21125;-62
2021/01/02 10:33:18;;;;;;;1999.90;999.90;;;;;;;4.09;100.00;101577.00;1764338;79;21155;-71
2021/01/02 10:35:46;;;;;;;1999.90;999.90;;;;;;;4.09;100.00;101586.59;1766631;81;21193;-64
2021/01/02 10:38:14;;;;;;;1999.90;999.90;;;;;;;4.08;100.00;101584.92;1765403;79;21111;-67
2021/01/02 10:40:42;;;;;;;1999.90;999.90;;;;;;;4.08;100.00;101590.41;1764753;79;21317;-74
2021/01/02 10:43:10;;;;;;;1999.90;999.90;;;;;;;4.10;100.00;101602.49;1768756;79;21581;-77
2021/01/02 10:45:38;;;;;;;1999.90;999.90;;;;;;;4.11;100.00;101598.67;1767752;79;21093;-76
2021/01/02 10:48:07;;;;;;;1999.90;999.90;;;;;;;4.12;100.00;101603.91;1768165;79;21112;-65
2021/01/02 10:50:35;;;;;;;1999.90;999.90;;;;;;;4.14;100.00;101601.77;1762261;80;21597;-77
2021/01/02 10:53:03;;;;;;;1999.90;999.90;;;;;;;4.16;100.00;101604.27;1758126;80;21386;-77
2021/01/02 10:55:31;;;;;;;1999.90;999.90;;;;;;;4.16;100.00;101605.64;1762902;80;21150;-68
2021/01/02 10:57:58;;;;;;;1999.90;999.90;;;;;;;4.17;100.00;101611.41;1761597;80;21123;-70
2021/01/02 11:00:26;;;;;;;1999.90;999.90;;;;;;;4.20;100.00;101611.77;1761572;81;21150;-76
2021/01/02 11:02:54;;;;;;;1999.90;999.90;;;;;;;4.20;100.00;101619.98;1754638;80;21565;-67
2021/01/02 11:05:22;;;;;;;1999.90;999.90;;;;;;;4.20;100.00;101615.88;1761310;80;21391;-65
2021/01/02 11:07:50;;;;;;;1999.90;999.90;;;;;;;4.21;100.00;101620.81;1754413;80;21623;-66
2021/01/02 11:10:19;;;;;;;1999.90;999.90;;;;;;;4.23;100.00;101623.31;1763158;81;21104;-64
2021/01/02 11:12:47;;;;;;;1999.90;999.90;;;;;;;4.21;100.00;101616.71;1762059;80;21772;-66
2021/01/02 11:15:16;;;;;;;1999.90;999.90;;;;;;;4.18;100.00;101617.19;1761898;81;21137;-69